Terminal Aerodrome Forecast
Issued by NWS Hastings, NE

Home | Current Version | Previous Version | Text Only | Print | Product List | Glossary On
Versions: 1 2 3 4 5 6 7 8 9 10 11 12 13 14
000
FTUS43 KGID 291128
TAFGRI
TAF
KGRI 291128Z 2912/3012 05014KT P6SM OVC045
     FM291400 03016G26KT P6SM -RA OVC020
     FM292200 02021G29KT 6SM -RA OVC015
     FM300000 02019G27KT 6SM RA OVC015
     FM300600 01019G27KT 5SM RASN OVC004=

USA.gov is the U.S. government's official web portal to all federal, state and local government web resources and services.